sensor_id;sensor_type;location;lat;lon;timestamp;temperature;humidity
35700;DHT22;21818;51.078;12.108;2023-02-13T00:02:23;11.50;86.40
35700;DHT22;21818;51.078;12.108;2023-02-13T00:04:48;11.60;86.40
35700;DHT22;21818;51.078;12.108;2023-02-13T00:07:14;11.60;86.30
35700;DHT22;21818;51.078;12.108;2023-02-13T00:09:39;11.60;86.40
35700;DHT22;21818;51.078;12.108;2023-02-13T00:12:06;11.60;86.40
35700;DHT22;21818;51.078;12.108;2023-02-13T00:14:37;11.60;86.50
35700;DHT22;21818;51.078;12.108;2023-02-13T00:17:04;11.60;86.60
35700;DHT22;21818;51.078;12.108;2023-02-13T00:19:29;11.60;86.60
35700;DHT22;21818;51.078;12.108;2023-02-13T00:21:55;11.60;87.20
35700;DHT22;21818;51.078;12.108;2023-02-13T00:24:21;11.60;86.70
35700;DHT22;21818;51.078;12.108;2023-02-13T00:26:46;11.60;86.80
35700;DHT22;21818;51.078;12.108;2023-02-13T00:29:12;11.60;86.90
35700;DHT22;21818;51.078;12.108;2023-02-13T00:31:37;11.50;86.90
35700;DHT22;21818;51.078;12.108;2023-02-13T00:34:03;11.60;87.00
35700;DHT22;21818;51.078;12.108;2023-02-13T00:36:29;11.60;87.10
35700;DHT22;21818;51.078;12.108;2023-02-13T00:38:55;11.60;87.00
35700;DHT22;21818;51.078;12.108;2023-02-13T00:41:21;11.60;87.00
35700;DHT22;21818;51.078;12.108;2023-02-13T00:43:47;11.60;87.00
35700;DHT22;21818;51.078;12.108;2023-02-13T00:46:14;11.50;87.10
35700;DHT22;21818;51.078;12.108;2023-02-13T00:48:39;11.50;87.30
35700;DHT22;21818;51.078;12.108;2023-02-13T00:51:06;11.50;87.40
35700;DHT22;21818;51.078;12.108;2023-02-13T00:53:32;11.50;87.30
35700;DHT22;21818;51.078;12.108;2023-02-13T00:55:58;11.50;87.40
35700;DHT22;21818;51.078;12.108;2023-02-13T00:58:24;11.50;87.40
35700;DHT22;21818;51.078;12.108;2023-02-13T01:00:51;11.50;87.40
35700;DHT22;21818;51.078;12.108;2023-02-13T01:03:18;11.50;87.40
35700;DHT22;21818;51.078;12.108;2023-02-13T01:05:44;11.50;87.50
35700;DHT22;21818;51.078;12.108;2023-02-13T01:08:11;11.50;87.50
35700;DHT22;21818;51.078;12.108;2023-02-13T01:10:38;11.50;87.60
35700;DHT22;21818;51.078;12.108;2023-02-13T01:13:04;11.50;87.70
35700;DHT22;21818;51.078;12.108;2023-02-13T01:15:30;11.40;87.70
35700;DHT22;21818;51.078;12.108;2023-02-13T01:17:56;11.40;87.70
35700;DHT22;21818;51.078;12.108;2023-02-13T01:20:23;11.40;87.70
35700;DHT22;21818;51.078;12.108;2023-02-13T01:22:49;11.40;87.70
35700;DHT22;21818;51.078;12.108;2023-02-13T01:25:15;11.40;87.70
35700;DHT22;21818;51.078;12.108;2023-02-13T01:27:41;11.40;87.80
35700;DHT22;21818;51.078;12.108;2023-02-13T01:30:08;11.30;87.80
35700;DHT22;21818;51.078;12.108;2023-02-13T01:32:38;11.30;87.90
35700;DHT22;21818;51.078;12.108;2023-02-13T01:35:04;11.40;87.80
35700;DHT22;21818;51.078;12.108;2023-02-13T01:37:29;11.40;87.70
35700;DHT22;21818;51.078;12.108;2023-02-13T01:39:55;11.40;87.60
35700;DHT22;21818;51.078;12.108;2023-02-13T01:42:25;11.40;87.60
35700;DHT22;21818;51.078;12.108;2023-02-13T01:44:58;11.40;87.70
35700;DHT22;21818;51.078;12.108;2023-02-13T01:52:35;11.40;87.70
35700;DHT22;21818;51.078;12.108;2023-02-13T01:55:04;11.40;87.80
35700;DHT22;21818;51.078;12.108;2023-02-13T01:57:31;11.30;87.90
35700;DHT22;21818;51.078;12.108;2023-02-13T02:00:07;11.40;87.80
35700;DHT22;21818;51.078;12.108;2023-02-13T02:02:37;11.40;87.80
35700;DHT22;21818;51.078;12.108;2023-02-13T02:05:05;11.30;87.80
35700;DHT22;21818;51.078;12.108;2023-02-13T02:07:32;11.30;87.70
35700;DHT22;21818;51.078;12.108;2023-02-13T02:10:02;11.40;87.70
35700;DHT22;21818;51.078;12.108;2023-02-13T02:12:35;11.40;87.70
35700;DHT22;21818;51.078;12.108;2023-02-13T02:15:04;11.40;87.60
35700;DHT22;21818;51.078;12.108;2023-02-13T02:17:29;11.40;87.60
35700;DHT22;21818;51.078;12.108;2023-02-13T02:20:25;11.40;87.70
35700;DHT22;21818;51.078;12.108;2023-02-13T02:34:12;11.30;87.50
35700;DHT22;21818;51.078;12.108;2023-02-13T02:46:57;11.30;87.50
35700;DHT22;21818;51.078;12.108;2023-02-13T02:49:50;11.40;87.30
35700;DHT22;21818;51.078;12.108;2023-02-13T02:52:31;11.40;87.40
35700;DHT22;21818;51.078;12.108;2023-02-13T02:55:19;11.40;87.40
35700;DHT22;21818;51.078;12.108;2023-02-13T02:57:59;11.40;87.40
35700;DHT22;21818;51.078;12.108;2023-02-13T03:00:48;11.40;87.30
35700;DHT22;21818;51.078;12.108;2023-02-13T03:03:33;11.40;87.40
35700;DHT22;21818;51.078;12.108;2023-02-13T03:06:19;11.40;87.40
35700;DHT22;21818;51.078;12.108;2023-02-13T03:08:53;11.30;87.40
35700;DHT22;21818;51.078;12.108;2023-02-13T03:11:39;11.40;87.30
35700;DHT22;21818;51.078;12.108;2023-02-13T03:14:26;11.40;87.40
35700;DHT22;21818;51.078;12.108;2023-02-13T03:16:53;11.40;87.30
35700;DHT22;21818;51.078;12.108;2023-02-13T03:19:56;11.30;87.30
35700;DHT22;21818;51.078;12.108;2023-02-13T03:25:33;11.30;87.40
35700;DHT22;21818;51.078;12.108;2023-02-13T03:30:58;11.30;87.50
35700;DHT22;21818;51.078;12.108;2023-02-13T03:36:04;11.30;87.50
35700;DHT22;21818;51.078;12.108;2023-02-13T03:38:58;11.30;87.60
35700;DHT22;21818;51.078;12.108;2023-02-13T03:41:40;11.30;87.70
35700;DHT22;21818;51.078;12.108;2023-02-13T03:44:19;11.30;87.70
35700;DHT22;21818;51.078;12.108;2023-02-13T03:46:49;11.30;87.70
35700;DHT22;21818;51.078;12.108;2023-02-13T03:49:25;11.30;87.60
35700;DHT22;21818;51.078;12.108;2023-02-13T03:54:45;11.30;87.70
35700;DHT22;21818;51.078;12.108;2023-02-13T03:57:32;11.20;87.70
35700;DHT22;21818;51.078;12.108;2023-02-13T04:00:18;11.30;87.80
35700;DHT22;21818;51.078;12.108;2023-02-13T04:05:23;11.20;87.90
35700;DHT22;21818;51.078;12.108;2023-02-13T04:07:50;11.20;88.00
35700;DHT22;21818;51.078;12.108;2023-02-13T04:10:17;11.30;87.80
35700;DHT22;21818;51.078;12.108;2023-02-13T04:13:12;11.30;87.80
35700;DHT22;21818;51.078;12.108;2023-02-13T04:15:57;11.20;87.90
35700;DHT22;21818;51.078;12.108;2023-02-13T04:18:30;11.20;88.00
35700;DHT22;21818;51.078;12.108;2023-02-13T04:21:00;11.20;88.00
35700;DHT22;21818;51.078;12.108;2023-02-13T04:23:25;11.20;88.00
35700;DHT22;21818;51.078;12.108;2023-02-13T04:25:53;11.10;88.20
35700;DHT22;21818;51.078;12.108;2023-02-13T04:28:19;11.10;88.40
35700;DHT22;21818;51.078;12.108;2023-02-13T04:30:45;11.10;88.40
35700;DHT22;21818;51.078;12.108;2023-02-13T04:33:10;11.00;88.40
35700;DHT22;21818;51.078;12.108;2023-02-13T04:35:36;11.00;88.40
35700;DHT22;21818;51.078;12.108;2023-02-13T04:38:01;11.00;88.60
35700;DHT22;21818;51.078;12.108;2023-02-13T04:40:27;11.00;88.60
35700;DHT22;21818;51.078;12.108;2023-02-13T04:42:53;11.00;88.80
35700;DHT22;21818;51.078;12.108;2023-02-13T04:45:18;11.00;88.60
35700;DHT22;21818;51.078;12.108;2023-02-13T04:47:54;11.00;88.60
35700;DHT22;21818;51.078;12.108;2023-02-13T04:50:20;11.00;88.70
35700;DHT22;21818;51.078;12.108;2023-02-13T04:52:46;11.00;88.60
35700;DHT22;21818;51.078;12.108;2023-02-13T04:55:12;10.90;88.70
35700;DHT22;21818;51.078;12.108;2023-02-13T04:57:38;11.00;88.80
35700;DHT22;21818;51.078;12.108;2023-02-13T05:00:04;11.00;88.70
35700;DHT22;21818;51.078;12.108;2023-02-13T05:02:31;11.00;88.60
35700;DHT22;21818;51.078;12.108;2023-02-13T05:04:56;11.10;88.50
35700;DHT22;21818;51.078;12.108;2023-02-13T05:07:22;11.00;88.50
35700;DHT22;21818;51.078;12.108;2023-02-13T05:09:47;11.00;88.70
35700;DHT22;21818;51.078;12.108;2023-02-13T05:12:13;11.00;88.60
35700;DHT22;21818;51.078;12.108;2023-02-13T05:14:38;11.00;88.70
35700;DHT22;21818;51.078;12.108;2023-02-13T05:17:04;11.00;88.80
35700;DHT22;21818;51.078;12.108;2023-02-13T05:19:29;11.00;88.80
35700;DHT22;21818;51.078;12.108;2023-02-13T05:21:55;11.00;88.70
35700;DHT22;21818;51.078;12.108;2023-02-13T05:24:39;11.00;88.80
35700;DHT22;21818;51.078;12.108;2023-02-13T05:27:04;11.00;88.80
35700;DHT22;21818;51.078;12.108;2023-02-13T05:29:30;11.00;88.70
35700;DHT22;21818;51.078;12.108;2023-02-13T05:31:56;11.00;88.70
35700;DHT22;21818;51.078;12.108;2023-02-13T05:34:24;11.00;88.80
35700;DHT22;21818;51.078;12.108;2023-02-13T05:36:50;11.00;88.80
35700;DHT22;21818;51.078;12.108;2023-02-13T05:39:16;11.00;88.90
35700;DHT22;21818;51.078;12.108;2023-02-13T05:41:43;11.00;88.90
35700;DHT22;21818;51.078;12.108;2023-02-13T05:44:08;10.90;88.90
35700;DHT22;21818;51.078;12.108;2023-02-13T05:46:36;10.90;89.00
35700;DHT22;21818;51.078;12.108;2023-02-13T05:49:02;11.00;89.00
35700;DHT22;21818;51.078;12.108;2023-02-13T05:51:28;11.00;89.00
35700;DHT22;21818;51.078;12.108;2023-02-13T05:53:54;11.00;89.00
35700;DHT22;21818;51.078;12.108;2023-02-13T05:56:19;11.00;88.90
35700;DHT22;21818;51.078;12.108;2023-02-13T05:58:45;10.90;89.00
35700;DHT22;21818;51.078;12.108;2023-02-13T06:01:12;10.90;89.00
35700;DHT22;21818;51.078;12.108;2023-02-13T06:03:37;11.00;89.00
35700;DHT22;21818;51.078;12.108;2023-02-13T06:06:05;10.90;88.90
35700;DHT22;21818;51.078;12.108;2023-02-13T06:08:30;10.90;89.00
35700;DHT22;21818;51.078;12.108;2023-02-13T06:10:56;10.90;89.10
35700;DHT22;21818;51.078;12.108;2023-02-13T06:13:22;10.90;89.10
35700;DHT22;21818;51.078;12.108;2023-02-13T06:15:47;10.90;89.10
35700;DHT22;21818;51.078;12.108;2023-02-13T06:18:15;10.90;89.10
35700;DHT22;21818;51.078;12.108;2023-02-13T06:20:40;10.90;89.10
35700;DHT22;21818;51.078;12.108;2023-02-13T06:23:06;10.90;89.00
35700;DHT22;21818;51.078;12.108;2023-02-13T06:25:33;10.90;89.00
35700;DHT22;21818;51.078;12.108;2023-02-13T06:27:59;10.90;89.00
35700;DHT22;21818;51.078;12.108;2023-02-13T06:30:25;10.90;88.90
35700;DHT22;21818;51.078;12.108;2023-02-13T06:32:50;10.90;88.80
35700;DHT22;21818;51.078;12.108;2023-02-13T06:35:16;10.90;88.90
35700;DHT22;21818;51.078;12.108;2023-02-13T06:37:42;10.90;88.80
35700;DHT22;21818;51.078;12.108;2023-02-13T06:40:08;10.90;88.70
35700;DHT22;21818;51.078;12.108;2023-02-13T06:42:34;10.80;88.80
35700;DHT22;21818;51.078;12.108;2023-02-13T06:45:00;10.80;88.80
35700;DHT22;21818;51.078;12.108;2023-02-13T06:47:26;10.80;88.80
35700;DHT22;21818;51.078;12.108;2023-02-13T06:49:51;10.90;88.70
35700;DHT22;21818;51.078;12.108;2023-02-13T06:52:17;10.90;88.60
35700;DHT22;21818;51.078;12.108;2023-02-13T06:54:42;10.90;88.50
35700;DHT22;21818;51.078;12.108;2023-02-13T06:57:08;10.80;88.50
35700;DHT22;21818;51.078;12.108;2023-02-13T06:59:34;10.80;88.60
35700;DHT22;21818;51.078;12.108;2023-02-13T07:01:59;10.80;89.10
35700;DHT22;21818;51.078;12.108;2023-02-13T07:04:26;10.80;88.60
35700;DHT22;21818;51.078;12.108;2023-02-13T07:06:54;10.80;88.50
35700;DHT22;21818;51.078;12.108;2023-02-13T07:09:20;10.80;88.40
35700;DHT22;21818;51.078;12.108;2023-02-13T07:11:45;10.80;88.40
35700;DHT22;21818;51.078;12.108;2023-02-13T07:14:11;10.80;88.40
35700;DHT22;21818;51.078;12.108;2023-02-13T07:16:36;10.80;88.50
35700;DHT22;21818;51.078;12.108;2023-02-13T07:19:02;11.10;88.10
35700;DHT22;21818;51.078;12.108;2023-02-13T07:21:27;11.50;87.20
35700;DHT22;21818;51.078;12.108;2023-02-13T07:23:53;11.90;86.70
35700;DHT22;21818;51.078;12.108;2023-02-13T07:26:18;12.10;86.10
35700;DHT22;21818;51.078;12.108;2023-02-13T07:28:44;12.20;85.80
35700;DHT22;21818;51.078;12.108;2023-02-13T07:31:10;12.40;85.60
35700;DHT22;21818;51.078;12.108;2023-02-13T07:33:36;12.50;85.50
35700;DHT22;21818;51.078;12.108;2023-02-13T07:36:02;12.50;85.40
35700;DHT22;21818;51.078;12.108;2023-02-13T07:38:31;12.60;85.30
35700;DHT22;21818;51.078;12.108;2023-02-13T07:40:58;12.70;85.20
35700;DHT22;21818;51.078;12.108;2023-02-13T07:43:24;12.70;85.10
35700;DHT22;21818;51.078;12.108;2023-02-13T07:45:49;12.70;85.00
35700;DHT22;21818;51.078;12.108;2023-02-13T07:48:21;12.80;85.00
35700;DHT22;21818;51.078;12.108;2023-02-13T07:50:46;12.80;84.90
35700;DHT22;21818;51.078;12.108;2023-02-13T07:53:12;12.80;85.00
35700;DHT22;21818;51.078;12.108;2023-02-13T07:55:37;12.80;84.80
35700;DHT22;21818;51.078;12.108;2023-02-13T07:58:03;12.90;84.80
35700;DHT22;21818;51.078;12.108;2023-02-13T08:00:29;12.90;84.80
35700;DHT22;21818;51.078;12.108;2023-02-13T08:02:58;12.90;84.70
35700;DHT22;21818;51.078;12.108;2023-02-13T08:05:23;12.90;84.60
35700;DHT22;21818;51.078;12.108;2023-02-13T08:07:49;13.00;84.60
35700;DHT22;21818;51.078;12.108;2023-02-13T08:10:15;13.00;84.50
35700;DHT22;21818;51.078;12.108;2023-02-13T08:12:59;13.00;84.40
35700;DHT22;21818;51.078;12.108;2023-02-13T08:15:24;13.00;84.30
35700;DHT22;21818;51.078;12.108;2023-02-13T08:17:50;13.00;84.30
35700;DHT22;21818;51.078;12.108;2023-02-13T08:20:16;13.00;84.20
35700;DHT22;21818;51.078;12.108;2023-02-13T08:22:41;13.10;84.20
35700;DHT22;21818;51.078;12.108;2023-02-13T08:25:07;13.10;84.10
35700;DHT22;21818;51.078;12.108;2023-02-13T08:27:33;13.10;84.00
35700;DHT22;21818;51.078;12.108;2023-02-13T08:29:59;13.10;84.00
35700;DHT22;21818;51.078;12.108;2023-02-13T08:32:26;13.10;83.90
35700;DHT22;21818;51.078;12.108;2023-02-13T08:34:51;13.10;83.90
35700;DHT22;21818;51.078;12.108;2023-02-13T08:37:17;13.20;83.90
35700;DHT22;21818;51.078;12.108;2023-02-13T08:39:43;13.20;83.80
35700;DHT22;21818;51.078;12.108;2023-02-13T08:42:08;13.20;83.70
35700;DHT22;21818;51.078;12.108;2023-02-13T08:44:34;13.20;83.60
35700;DHT22;21818;51.078;12.108;2023-02-13T08:47:00;13.20;83.60
35700;DHT22;21818;51.078;12.108;2023-02-13T08:49:32;13.20;83.50
35700;DHT22;21818;51.078;12.108;2023-02-13T08:51:58;13.20;83.50
35700;DHT22;21818;51.078;12.108;2023-02-13T08:54:24;13.20;83.40
35700;DHT22;21818;51.078;12.108;2023-02-13T08:56:49;13.30;83.40
35700;DHT22;21818;51.078;12.108;2023-02-13T08:59:15;13.30;83.30
35700;DHT22;21818;51.078;12.108;2023-02-13T09:01:41;13.30;83.20
35700;DHT22;21818;51.078;12.108;2023-02-13T09:04:06;13.30;83.20
35700;DHT22;21818;51.078;12.108;2023-02-13T09:06:32;13.30;83.00
35700;DHT22;21818;51.078;12.108;2023-02-13T09:08:57;13.30;83.00
35700;DHT22;21818;51.078;12.108;2023-02-13T09:11:23;13.30;82.90
35700;DHT22;21818;51.078;12.108;2023-02-13T09:13:52;13.30;82.90
35700;DHT22;21818;51.078;12.108;2023-02-13T09:16:18;13.30;82.80
35700;DHT22;21818;51.078;12.108;2023-02-13T09:18:46;13.30;82.70
35700;DHT22;21818;51.078;12.108;2023-02-13T09:21:11;13.30;82.70
35700;DHT22;21818;51.078;12.108;2023-02-13T09:23:39;13.30;82.60
35700;DHT22;21818;51.078;12.108;2023-02-13T09:26:07;13.30;82.60
35700;DHT22;21818;51.078;12.108;2023-02-13T09:28:34;13.30;82.60
35700;DHT22;21818;51.078;12.108;2023-02-13T09:31:07;13.30;82.60
35700;DHT22;21818;51.078;12.108;2023-02-13T09:33:33;13.30;82.50
35700;DHT22;21818;51.078;12.108;2023-02-13T09:36:04;13.40;82.50
35700;DHT22;21818;51.078;12.108;2023-02-13T09:38:29;13.40;82.50
35700;DHT22;21818;51.078;12.108;2023-02-13T09:40:59;13.40;82.50
35700;DHT22;21818;51.078;12.108;2023-02-13T09:43:40;13.40;82.40
35700;DHT22;21818;51.078;12.108;2023-02-13T09:46:12;13.40;82.30
35700;DHT22;21818;51.078;12.108;2023-02-13T09:48:40;13.40;82.30
35700;DHT22;21818;51.078;12.108;2023-02-13T09:51:12;13.40;82.30
35700;DHT22;21818;51.078;12.108;2023-02-13T09:53:39;13.40;82.20
35700;DHT22;21818;51.078;12.108;2023-02-13T09:58:45;13.50;82.00
35700;DHT22;21818;51.078;12.108;2023-02-13T10:01:34;13.50;81.90
35700;DHT22;21818;51.078;12.108;2023-02-13T10:09:45;13.50;81.90
35700;DHT22;21818;51.078;12.108;2023-02-13T10:12:23;13.50;81.80
35700;DHT22;21818;51.078;12.108;2023-02-13T10:17:39;13.50;81.70
35700;DHT22;21818;51.078;12.108;2023-02-13T10:26:02;13.50;81.70
35700;DHT22;21818;51.078;12.108;2023-02-13T10:28:57;13.60;81.70
35700;DHT22;21818;51.078;12.108;2023-02-13T10:31:45;13.60;81.60
35700;DHT22;21818;51.078;12.108;2023-02-13T10:34:16;13.60;81.60
35700;DHT22;21818;51.078;12.108;2023-02-13T10:36:46;13.60;81.50
35700;DHT22;21818;51.078;12.108;2023-02-13T10:39:23;13.60;81.50
35700;DHT22;21818;51.078;12.108;2023-02-13T10:42:01;13.60;81.40
35700;DHT22;21818;51.078;12.108;2023-02-13T10:50:02;13.60;81.40
35700;DHT22;21818;51.078;12.108;2023-02-13T10:52:46;13.60;81.30
35700;DHT22;21818;51.078;12.108;2023-02-13T10:55:20;13.60;81.30
35700;DHT22;21818;51.078;12.108;2023-02-13T10:58:08;13.60;81.30
35700;DHT22;21818;51.078;12.108;2023-02-13T11:03:24;13.60;81.10
35700;DHT22;21818;51.078;12.108;2023-02-13T11:05:51;13.60;81.10
35700;DHT22;21818;51.078;12.108;2023-02-13T11:08:23;13.60;81.20
35700;DHT22;21818;51.078;12.108;2023-02-13T11:10:49;13.60;81.10
35700;DHT22;21818;51.078;12.108;2023-02-13T11:13:20;13.60;81.10
35700;DHT22;21818;51.078;12.108;2023-02-13T11:16:05;13.60;81.10
35700;DHT22;21818;51.078;12.108;2023-02-13T11:18:37;13.60;81.10
35700;DHT22;21818;51.078;12.108;2023-02-13T11:21:15;13.60;81.10
35700;DHT22;21818;51.078;12.108;2023-02-13T11:23:44;13.60;81.00
35700;DHT22;21818;51.078;12.108;2023-02-13T11:26:15;13.60;80.90
35700;DHT22;21818;51.078;12.108;2023-02-13T11:28:56;13.60;80.90
35700;DHT22;21818;51.078;12.108;2023-02-13T11:31:26;13.60;80.80
35700;DHT22;21818;51.078;12.108;2023-02-13T11:33:53;13.60;80.80
35700;DHT22;21818;51.078;12.108;2023-02-13T11:36:26;13.70;80.80
35700;DHT22;21818;51.078;12.108;2023-02-13T11:39:03;13.70;80.70
35700;DHT22;21818;51.078;12.108;2023-02-13T11:41:35;13.70;80.60
35700;DHT22;21818;51.078;12.108;2023-02-13T11:44:01;13.70;80.60
35700;DHT22;21818;51.078;12.108;2023-02-13T11:46:42;13.70;80.60
35700;DHT22;21818;51.078;12.108;2023-02-13T11:49:20;13.70;80.60
35700;DHT22;21818;51.078;12.108;2023-02-13T11:57:18;13.70;80.50
35700;DHT22;21818;51.078;12.108;2023-02-13T11:59:42;13.70;80.40
35700;DHT22;21818;51.078;12.108;2023-02-13T12:04:41;13.70;80.30
35700;DHT22;21818;51.078;12.108;2023-02-13T12:07:25;13.80;80.30
35700;DHT22;21818;51.078;12.108;2023-02-13T12:15:18;13.80;80.30
35700;DHT22;21818;51.078;12.108;2023-02-13T12:17:47;13.80;80.30
35700;DHT22;21818;51.078;12.108;2023-02-13T12:20:15;13.80;80.20
35700;DHT22;21818;51.078;12.108;2023-02-13T12:22:45;13.80;80.10
35700;DHT22;21818;51.078;12.108;2023-02-13T12:28:14;13.80;80.20
35700;DHT22;21818;51.078;12.108;2023-02-13T12:36:35;13.80;80.10
35700;DHT22;21818;51.078;12.108;2023-02-13T12:47:18;13.80;80.10
35700;DHT22;21818;51.078;12.108;2023-02-13T12:50:14;13.80;80.00
35700;DHT22;21818;51.078;12.108;2023-02-13T12:53:09;13.70;80.00
35700;DHT22;21818;51.078;12.108;2023-02-13T12:58:45;13.80;80.00
35700;DHT22;21818;51.078;12.108;2023-02-13T13:01:40;13.80;80.00
35700;DHT22;21818;51.078;12.108;2023-02-13T13:07:29;13.80;80.00
35700;DHT22;21818;51.078;12.108;2023-02-13T13:15:39;13.80;79.90
35700;DHT22;21818;51.078;12.108;2023-02-13T13:18:18;13.80;79.80
35700;DHT22;21818;51.078;12.108;2023-02-13T13:21:00;13.80;79.80
35700;DHT22;21818;51.078;12.108;2023-02-13T13:23:48;13.80;79.90
35700;DHT22;21818;51.078;12.108;2023-02-13T13:26:26;13.80;79.80
35700;DHT22;21818;51.078;12.108;2023-02-13T13:28:58;13.80;79.80
35700;DHT22;21818;51.078;12.108;2023-02-13T13:31:27;13.80;79.80
35700;DHT22;21818;51.078;12.108;2023-02-13T13:33:57;13.80;79.70
35700;DHT22;21818;51.078;12.108;2023-02-13T13:39:24;13.80;79.60
35700;DHT22;21818;51.078;12.108;2023-02-13T13:41:59;13.80;80.10
35700;DHT22;21818;51.078;12.108;2023-02-13T13:44:49;13.80;79.60
35700;DHT22;21818;51.078;12.108;2023-02-13T13:49:57;13.80;79.50
35700;DHT22;21818;51.078;12.108;2023-02-13T13:54:52;13.80;79.50
35700;DHT22;21818;51.078;12.108;2023-02-13T13:57:24;13.80;79.40
35700;DHT22;21818;51.078;12.108;2023-02-13T13:59:59;13.80;79.40
35700;DHT22;21818;51.078;12.108;2023-02-13T14:05:26;13.80;79.90
35700;DHT22;21818;51.078;12.108;2023-02-13T14:07:55;13.90;79.40
35700;DHT22;21818;51.078;12.108;2023-02-13T14:12:50;13.80;79.40
35700;DHT22;21818;51.078;12.108;2023-02-13T14:17:59;13.80;79.30
35700;DHT22;21818;51.078;12.108;2023-02-13T14:23:25;13.90;79.30
35700;DHT22;21818;51.078;12.108;2023-02-13T14:26:11;13.80;79.30
35700;DHT22;21818;51.078;12.108;2023-02-13T14:28:38;13.80;79.30
35700;DHT22;21818;51.078;12.108;2023-02-13T14:36:39;13.90;79.30
35700;DHT22;21818;51.078;12.108;2023-02-13T14:39:20;13.80;79.20
35700;DHT22;21818;51.078;12.108;2023-02-13T14:44:30;13.80;79.30
35700;DHT22;21818;51.078;12.108;2023-02-13T14:47:00;13.90;79.80
35700;DHT22;21818;51.078;12.108;2023-02-13T14:49:30;13.80;79.20
35700;DHT22;21818;51.078;12.108;2023-02-13T14:52:15;13.90;79.30
35700;DHT22;21818;51.078;12.108;2023-02-13T14:54:48;13.90;79.20
35700;DHT22;21818;51.078;12.108;2023-02-13T14:57:22;13.90;79.70
35700;DHT22;21818;51.078;12.108;2023-02-13T14:59:52;13.90;79.10
35700;DHT22;21818;51.078;12.108;2023-02-13T15:02:26;13.90;79.10
35700;DHT22;21818;51.078;12.108;2023-02-13T15:07:35;13.90;79.10
35700;DHT22;21818;51.078;12.108;2023-02-13T15:10:06;13.90;79.10
35700;DHT22;21818;51.078;12.108;2023-02-13T15:12:40;13.90;79.10
35700;DHT22;21818;51.078;12.108;2023-02-13T15:15:33;13.90;79.10
35700;DHT22;21818;51.078;12.108;2023-02-13T15:18:03;13.90;79.10
35700;DHT22;21818;51.078;12.108;2023-02-13T15:20:33;13.80;79.10
35700;DHT22;21818;51.078;12.108;2023-02-13T15:22:59;13.90;79.10
35700;DHT22;21818;51.078;12.108;2023-02-13T15:25:33;13.80;79.10
35700;DHT22;21818;51.078;12.108;2023-02-13T15:27:59;13.80;79.20
35700;DHT22;21818;51.078;12.108;2023-02-13T15:30:28;13.80;79.20
35700;DHT22;21818;51.078;12.108;2023-02-13T15:32:58;13.80;79.20
35700;DHT22;21818;51.078;12.108;2023-02-13T15:35:30;13.80;79.20
35700;DHT22;21818;51.078;12.108;2023-02-13T15:37:57;13.80;79.20
35700;DHT22;21818;51.078;12.108;2023-02-13T15:40:29;13.80;79.20
35700;DHT22;21818;51.078;12.108;2023-02-13T15:42:56;13.80;79.20
35700;DHT22;21818;51.078;12.108;2023-02-13T15:45:23;13.80;79.20
35700;DHT22;21818;51.078;12.108;2023-02-13T15:47:50;13.90;79.20
35700;DHT22;21818;51.078;12.108;2023-02-13T15:50:16;13.90;79.20
35700;DHT22;21818;51.078;12.108;2023-02-13T15:52:42;13.80;79.10
35700;DHT22;21818;51.078;12.108;2023-02-13T15:55:21;13.90;79.20
35700;DHT22;21818;51.078;12.108;2023-02-13T15:57:47;13.90;79.20
35700;DHT22;21818;51.078;12.108;2023-02-13T16:02:54;13.90;79.00
35700;DHT22;21818;51.078;12.108;2023-02-13T16:05:20;14.00;79.00
35700;DHT22;21818;51.078;12.108;2023-02-13T16:07:51;14.00;78.90
35700;DHT22;21818;51.078;12.108;2023-02-13T16:10:31;14.00;78.80
35700;DHT22;21818;51.078;12.108;2023-02-13T16:13:00;14.00;78.90
35700;DHT22;21818;51.078;12.108;2023-02-13T16:15:29;14.00;78.90
35700;DHT22;21818;51.078;12.108;2023-02-13T16:17:56;13.90;78.90
35700;DHT22;21818;51.078;12.108;2023-02-13T16:20:25;13.90;78.90
35700;DHT22;21818;51.078;12.108;2023-02-13T16:25:26;13.90;79.00
35700;DHT22;21818;51.078;12.108;2023-02-13T16:27:58;13.90;78.90
35700;DHT22;21818;51.078;12.108;2023-02-13T16:30:36;13.90;78.90
35700;DHT22;21818;51.078;12.108;2023-02-13T16:35:43;13.90;78.90
35700;DHT22;21818;51.078;12.108;2023-02-13T16:38:32;13.90;78.90
35700;DHT22;21818;51.078;12.108;2023-02-13T16:43:48;13.90;79.00
35700;DHT22;21818;51.078;12.108;2023-02-13T16:46:17;13.90;79.10
35700;DHT22;21818;51.078;12.108;2023-02-13T16:56:39;13.90;79.50
35700;DHT22;21818;51.078;12.108;2023-02-13T16:59:36;13.90;79.50
35700;DHT22;21818;51.078;12.108;2023-02-13T17:04:54;13.90;79.60
35700;DHT22;21818;51.078;12.108;2023-02-13T17:07:29;13.90;79.60
35700;DHT22;21818;51.078;12.108;2023-02-13T17:09:58;13.90;79.70
35700;DHT22;21818;51.078;12.108;2023-02-13T17:12:25;13.90;79.80
35700;DHT22;21818;51.078;12.108;2023-02-13T17:14:51;13.80;79.80
35700;DHT22;21818;51.078;12.108;2023-02-13T17:17:19;13.80;79.80
35700;DHT22;21818;51.078;12.108;2023-02-13T17:19:45;13.80;79.80
35700;DHT22;21818;51.078;12.108;2023-02-13T17:22:32;13.80;79.90
35700;DHT22;21818;51.078;12.108;2023-02-13T17:25:01;13.80;80.00
35700;DHT22;21818;51.078;12.108;2023-02-13T17:27:27;13.70;80.00
35700;DHT22;21818;51.078;12.108;2023-02-13T17:29:52;13.70;80.00
35700;DHT22;21818;51.078;12.108;2023-02-13T17:32:21;13.70;80.10
35700;DHT22;21818;51.078;12.108;2023-02-13T17:34:47;13.70;80.20
35700;DHT22;21818;51.078;12.108;2023-02-13T17:37:26;13.70;80.20
35700;DHT22;21818;51.078;12.108;2023-02-13T17:39:52;13.70;80.20
35700;DHT22;21818;51.078;12.108;2023-02-13T17:42:22;13.70;80.20
35700;DHT22;21818;51.078;12.108;2023-02-13T17:44:48;13.70;80.10
35700;DHT22;21818;51.078;12.108;2023-02-13T17:47:14;13.70;80.10
35700;DHT22;21818;51.078;12.108;2023-02-13T17:49:40;13.70;80.10
35700;DHT22;21818;51.078;12.108;2023-02-13T17:52:05;13.70;80.10
35700;DHT22;21818;51.078;12.108;2023-02-13T17:54:31;13.70;80.10
35700;DHT22;21818;51.078;12.108;2023-02-13T17:56:58;13.70;80.10
35700;DHT22;21818;51.078;12.108;2023-02-13T17:59:24;13.60;80.10
35700;DHT22;21818;51.078;12.108;2023-02-13T18:01:50;13.60;80.10
35700;DHT22;21818;51.078;12.108;2023-02-13T18:04:15;13.60;80.20
35700;DHT22;21818;51.078;12.108;2023-02-13T18:06:41;13.60;80.20
35700;DHT22;21818;51.078;12.108;2023-02-13T18:09:06;13.60;80.20
35700;DHT22;21818;51.078;12.108;2023-02-13T18:11:32;13.60;80.20
35700;DHT22;21818;51.078;12.108;2023-02-13T18:13:57;13.60;80.20